createdAt,value
2018-02-05T00:00:00.066Z,49.25
2018-02-05T00:02:32.055Z,47.00
2018-02-05T00:05:03.995Z,45.50
2018-02-05T00:07:36.366Z,28.75
2018-02-05T00:10:08.745Z,33.75
2018-02-05T00:12:42.883Z,31.75
2018-02-05T00:15:17.998Z,39.75
2018-02-05T00:17:49.407Z,39.00
2018-02-05T00:20:20.619Z,43.75
2018-02-05T00:22:53.289Z,36.25
2018-02-05T00:25:25.079Z,27.25
2018-02-05T00:27:56.318Z,47.25
2018-02-05T00:30:27.726Z,36.00
2018-02-05T00:33:01.192Z,34.50
2018-02-05T00:35:32.648Z,37.25
2018-02-05T00:38:04.470Z,38.75
2018-02-05T00:40:35.617Z,40.00
2018-02-05T00:43:08.119Z,41.75
2018-02-05T00:45:38.887Z,39.50
2018-02-05T00:48:10.453Z,42.25
2018-02-05T00:50:50.042Z,47.25
2018-02-05T00:53:22.242Z,39.50
2018-02-05T00:55:54.386Z,45.00
2018-02-05T00:58:25.796Z,42.75
2018-02-05T01:00:58.341Z,46.75
2018-02-05T01:03:29.502Z,40.75
2018-02-05T01:06:00.644Z,39.00
2018-02-05T01:08:31.773Z,40.75
2018-02-05T01:11:03.380Z,44.25
2018-02-05T01:13:38.764Z,39.25
2018-02-05T01:16:10.465Z,40.75
2018-02-05T01:18:41.206Z,37.75
2018-02-05T01:21:12.058Z,43.75
2018-02-05T01:23:43.505Z,43.75
2018-02-05T01:26:15.404Z,41.00
2018-02-05T01:28:46.386Z,52.00
2018-02-05T01:33:59.920Z,37.75
2018-02-05T01:36:30.660Z,38.50
2018-02-05T01:39:02.102Z,41.00
2018-02-05T01:41:33.305Z,43.50
2018-02-05T01:44:05.300Z,28.50
2018-02-05T01:46:36.260Z,38.75
2018-02-05T01:49:07.142Z,41.00
2018-02-05T01:51:37.928Z,33.50
2018-02-05T01:54:08.674Z,45.00
2018-02-05T01:56:39.786Z,39.25
2018-02-05T01:59:11.012Z,36.50
2018-02-05T02:01:43.197Z,45.50
2018-02-05T02:04:13.996Z,40.25
2018-02-05T02:06:45.083Z,53.50
2018-02-05T02:09:15.834Z,39.75
2018-02-05T02:11:46.770Z,40.00
2018-02-05T02:14:17.544Z,34.25
2018-02-05T02:16:49.129Z,42.50
2018-02-05T02:19:20.615Z,43.50
2018-02-05T02:21:51.479Z,38.00
2018-02-05T02:24:22.363Z,30.75
2018-02-05T02:26:53.668Z,33.25
2018-02-05T02:29:24.844Z,38.50
2018-02-05T02:31:55.818Z,32.75
2018-02-05T02:34:26.477Z,35.75
2018-02-05T02:36:56.786Z,40.25
2018-02-05T02:39:27.624Z,38.50
2018-02-05T02:41:59.758Z,31.50
2018-02-05T02:44:30.637Z,30.25
2018-02-05T02:47:03.019Z,37.25
2018-02-05T02:49:34.461Z,35.50
2018-02-05T02:52:06.865Z,30.75
2018-02-05T02:54:51.469Z,42.75
2018-02-05T02:57:24.318Z,38.00
2018-02-05T02:59:56.060Z,38.25
2018-02-05T03:02:27.087Z,33.25
2018-02-05T03:04:59.395Z,35.00
2018-02-05T03:07:30.266Z,40.00
2018-02-05T03:10:00.638Z,27.50
2018-02-05T03:12:35.558Z,31.50
2018-02-05T03:15:16.613Z,33.50
2018-02-05T03:17:47.766Z,36.00
2018-02-05T03:20:18.633Z,32.75
2018-02-05T03:22:49.615Z,38.50
2018-02-05T03:25:21.146Z,30.00
2018-02-05T03:27:51.720Z,29.00
2018-02-05T03:30:22.706Z,34.75
2018-02-05T03:32:53.132Z,41.00
2018-02-05T03:35:26.091Z,28.50
2018-02-05T03:37:57.533Z,29.50
2018-02-05T03:40:28.969Z,29.75
2018-02-05T03:43:00.645Z,25.25
2018-02-05T03:45:31.579Z,29.50
2018-02-05T03:48:09.209Z,31.25
2018-02-05T03:50:41.425Z,28.25
2018-02-05T03:53:12.352Z,40.25
2018-02-05T03:55:45.248Z,31.75
2018-02-05T03:58:17.593Z,30.50
2018-02-05T04:00:49.485Z,32.00
2018-02-05T04:03:22.029Z,34.50
2018-02-05T04:05:53.090Z,27.75
2018-02-05T04:08:25.648Z,34.75
2018-02-05T04:10:57.348Z,35.00
2018-02-05T04:13:29.679Z,32.00
2018-02-05T04:16:01.824Z,31.25
2018-02-05T04:18:38.716Z,32.25
2018-02-05T04:21:09.780Z,36.75
2018-02-05T04:23:42.054Z,38.75
2018-02-05T04:26:13.786Z,34.25
2018-02-05T04:28:44.774Z,37.50
2018-02-05T04:31:16.304Z,31.75
2018-02-05T04:33:48.429Z,35.25
2018-02-05T04:36:19.487Z,33.75
2018-02-05T04:38:50.130Z,38.75
2018-02-05T04:41:21.110Z,39.00
2018-02-05T04:43:52.405Z,40.00
2018-02-05T04:46:24.530Z,34.00
2018-02-05T04:48:56.572Z,30.75
2018-02-05T04:51:39.341Z,38.00
2018-02-05T04:54:11.784Z,38.50
2018-02-05T04:56:43.704Z,30.75
2018-02-05T04:59:14.185Z,39.50
2018-02-05T05:01:45.758Z,31.00
2018-02-05T05:04:16.777Z,28.00
2018-02-05T05:06:48.026Z,41.00
2018-02-05T05:09:18.720Z,27.00
2018-02-05T05:11:49.083Z,28.50
2018-02-05T05:14:19.916Z,32.00
2018-02-05T05:16:53.649Z,29.00
2018-02-05T05:19:24.387Z,21.00
2018-02-05T05:21:54.989Z,24.50
2018-02-05T05:24:25.936Z,30.00
2018-02-05T05:26:56.536Z,35.00
2018-02-05T05:29:26.967Z,30.50
2018-02-05T05:31:58.154Z,31.00
2018-02-05T05:34:28.816Z,31.50
2018-02-05T05:37:00.431Z,27.50
2018-02-05T05:39:32.541Z,33.00
2018-02-05T05:42:02.816Z,33.50
2018-02-05T05:44:35.283Z,33.50
2018-02-05T05:47:06.720Z,37.00
2018-02-05T05:49:38.459Z,36.50
2018-02-05T05:52:09.808Z,28.00
2018-02-05T05:54:40.757Z,29.50
2018-02-05T05:57:11.211Z,32.00
2018-02-05T05:59:41.932Z,28.00
2018-02-05T06:02:14.327Z,32.50
2018-02-05T06:04:45.253Z,31.25
2018-02-05T06:07:16.456Z,29.75
2018-02-05T06:09:47.998Z,26.25
2018-02-05T06:12:19.063Z,35.25
2018-02-05T06:14:50.141Z,32.25
2018-02-05T06:17:22.013Z,27.25
2018-02-05T06:19:57.565Z,30.25
2018-02-05T06:22:29.311Z,33.50
2018-02-05T06:25:00.405Z,35.50
2018-02-05T06:27:31.202Z,33.50
2018-02-05T06:30:04.734Z,29.00
2018-02-05T06:32:36.411Z,27.75
2018-02-05T06:35:08.946Z,23.25
2018-02-05T06:37:41.875Z,29.75
2018-02-05T06:40:15.520Z,31.75
2018-02-05T06:42:47.702Z,25.75
2018-02-05T06:45:19.838Z,28.75
2018-02-05T06:47:51.201Z,31.25
2018-02-05T06:50:31.068Z,35.00
2018-02-05T06:53:45.613Z,33.25
2018-02-05T06:56:27.333Z,30.75
2018-02-05T06:59:00.269Z,29.25
2018-02-05T07:01:31.953Z,22.50
2018-02-05T07:04:03.148Z,29.75
2018-02-05T07:06:33.399Z,34.25
2018-02-05T07:09:06.252Z,32.50
2018-02-05T07:11:37.898Z,32.75
2018-02-05T07:14:09.959Z,30.00
2018-02-05T07:16:43.785Z,35.25
2018-02-05T07:19:16.289Z,30.50
2018-02-05T07:21:50.559Z,28.50
2018-02-05T07:24:29.204Z,28.50
2018-02-05T07:27:02.847Z,28.25
2018-02-05T07:29:35.048Z,21.50
2018-02-05T07:32:17.662Z,25.25
2018-02-05T07:34:48.704Z,30.25
2018-02-05T07:37:19.640Z,27.00
2018-02-05T07:42:20.189Z,27.00
2018-02-05T07:44:57.742Z,31.75
2018-02-05T07:47:30.426Z,26.75
2018-02-05T07:50:01.393Z,25.25
2018-02-05T07:52:32.023Z,33.75
2018-02-05T07:55:05.442Z,32.50
2018-02-05T07:57:38.434Z,22.50
2018-02-05T08:00:11.514Z,23.75
2018-02-05T08:02:44.997Z,25.25
2018-02-05T08:05:17.227Z,27.75
2018-02-05T08:07:49.937Z,27.50
2018-02-05T08:10:24.199Z,30.75
2018-02-05T08:12:58.555Z,22.50
2018-02-05T08:15:30.671Z,25.00
2018-02-05T08:18:02.190Z,23.75
2018-02-05T08:20:32.611Z,30.25
2018-02-05T08:23:03.575Z,25.75
2018-02-05T08:25:35.416Z,27.75
2018-02-05T08:28:06.925Z,22.25
2018-02-05T08:30:39.372Z,28.75
2018-02-05T08:33:13.198Z,26.00
2018-02-05T08:35:44.165Z,30.25
2018-02-05T08:38:16.475Z,30.50
2018-02-05T08:40:48.432Z,27.25
2018-02-05T08:43:22.512Z,32.50
2018-02-05T08:45:58.755Z,25.75
2018-02-05T08:48:31.040Z,24.50
2018-02-05T08:51:09.508Z,25.75
2018-02-05T08:54:07.190Z,24.75
2018-02-05T08:56:39.753Z,25.50
2018-02-05T08:59:11.027Z,26.00
2018-02-05T09:01:53.938Z,23.50
2018-02-05T09:04:25.578Z,26.75
2018-02-05T09:06:57.767Z,22.50
2018-02-05T09:09:29.656Z,26.25
2018-02-05T09:12:00.514Z,30.25
2018-02-05T09:14:35.784Z,26.75
2018-02-05T09:17:10.609Z,26.25
2018-02-05T09:19:41.388Z,28.25
2018-02-05T09:22:12.735Z,26.75
2018-02-05T09:24:43.889Z,33.50
2018-02-05T09:29:57.961Z,23.50
2018-02-05T09:32:29.079Z,24.50
2018-02-05T09:34:59.791Z,22.50
2018-02-05T09:37:32.251Z,22.00
2018-02-05T09:40:04.760Z,26.75
2018-02-05T09:42:36.634Z,24.25
2018-02-05T09:45:08.274Z,26.75
2018-02-05T09:47:39.578Z,24.50
2018-02-05T09:50:11.936Z,25.75
2018-02-05T09:52:44.615Z,23.75
2018-02-05T09:55:15.747Z,26.00
2018-02-05T09:57:47.445Z,24.00
2018-02-05T10:00:19.912Z,28.25
2018-02-05T10:02:51.784Z,26.50
2018-02-05T10:05:22.279Z,27.50
2018-02-05T10:07:55.182Z,26.50
2018-02-05T10:10:26.922Z,27.00
2018-02-05T10:12:58.633Z,26.25
2018-02-05T10:15:29.868Z,24.00
2018-02-05T10:20:28.812Z,20.25
2018-02-05T10:23:00.316Z,29.25
2018-02-05T10:25:31.964Z,28.75
2018-02-05T10:28:03.397Z,26.25
2018-02-05T10:30:35.404Z,29.00
2018-02-05T10:33:06.368Z,22.75
2018-02-05T10:35:37.715Z,22.75
2018-02-05T10:38:08.471Z,24.75
2018-02-05T10:40:43.740Z,19.50
2018-02-05T10:43:14.416Z,24.00
2018-02-05T10:45:46.096Z,23.75
2018-02-05T10:48:25.550Z,29.25
2018-02-05T10:50:57.385Z,20.00
2018-02-05T10:53:29.619Z,21.00
2018-02-05T10:56:00.308Z,27.00
2018-02-05T10:58:33.945Z,25.00
2018-02-05T11:01:05.852Z,24.00
2018-02-05T11:03:37.737Z,24.25
2018-02-05T11:06:08.079Z,24.00
2018-02-05T11:08:39.268Z,23.00
2018-02-05T11:11:10.647Z,24.75
2018-02-05T11:13:41.542Z,21.25
2018-02-05T11:16:12.903Z,22.00
2018-02-05T11:18:43.936Z,19.00
2018-02-05T11:21:14.545Z,18.00
2018-02-05T11:23:46.018Z,22.00
2018-02-05T11:26:16.163Z,19.75
2018-02-05T11:28:46.648Z,18.75
2018-02-05T11:31:17.474Z,19.00
2018-02-05T11:33:48.906Z,17.25
2018-02-05T11:36:20.955Z,18.00
2018-02-05T11:38:52.386Z,17.00
2018-02-05T11:41:22.910Z,19.50
2018-02-05T11:43:54.090Z,17.25
2018-02-05T11:46:25.505Z,17.00
2018-02-05T11:48:56.288Z,15.00
2018-02-05T11:51:27.206Z,16.00
2018-02-05T11:53:57.582Z,19.25
2018-02-05T11:56:28.926Z,16.50
2018-02-05T11:59:01.475Z,14.75
2018-02-05T12:01:32.798Z,15.25
2018-02-05T12:04:05.127Z,19.50
2018-02-05T12:06:36.861Z,20.50
2018-02-05T12:09:08.423Z,14.00
2018-02-05T12:11:39.499Z,15.50
2018-02-05T12:14:10.467Z,17.75
2018-02-05T12:16:42.314Z,24.25
2018-02-05T12:19:13.309Z,18.50
2018-02-05T12:21:44.340Z,17.75
2018-02-05T12:24:17.519Z,20.00
2018-02-05T12:26:48.247Z,21.00
2018-02-05T12:29:19.453Z,17.50
2018-02-05T12:31:51.454Z,17.75
2018-02-05T12:34:22.216Z,18.00
2018-02-05T12:36:54.142Z,16.00
2018-02-05T12:39:25.297Z,23.75
2018-02-05T12:41:57.308Z,18.75
2018-02-05T12:44:28.592Z,18.25
2018-02-05T12:47:14.855Z,19.25
2018-02-05T12:49:48.556Z,14.25
2018-02-05T12:52:20.243Z,18.00
2018-02-05T12:54:50.937Z,15.25
2018-02-05T12:57:24.314Z,15.00
2018-02-05T13:02:39.384Z,14.25
2018-02-05T13:05:10.622Z,15.25
2018-02-05T13:07:42.660Z,17.25
2018-02-05T13:10:14.959Z,12.75
2018-02-05T13:12:51.883Z,13.75
2018-02-05T13:15:22.797Z,11.75
2018-02-05T13:17:53.748Z,12.75
2018-02-05T13:20:25.273Z,12.25
2018-02-05T13:22:55.734Z,13.75
2018-02-05T13:25:26.491Z,11.50
2018-02-05T13:27:56.764Z,15.00
2018-02-05T13:30:27.782Z,16.75
2018-02-05T13:33:09.493Z,16.75
2018-02-05T13:35:42.074Z,13.00
2018-02-05T13:38:15.164Z,13.50
2018-02-05T13:40:45.654Z,12.25
2018-02-05T13:43:17.002Z,13.25
2018-02-05T13:45:49.997Z,11.50
2018-02-05T13:48:22.008Z,14.25
2018-02-05T13:50:52.450Z,10.25
2018-02-05T13:53:22.700Z,10.75
2018-02-05T13:55:53.326Z,14.25
2018-02-05T13:58:27.923Z,11.75
2018-02-05T14:00:59.305Z,12.75
2018-02-05T14:03:31.503Z,14.25
2018-02-05T14:06:05.158Z,11.50
2018-02-05T14:08:36.588Z,14.75
2018-02-05T14:11:15.557Z,11.00
2018-02-05T14:13:46.899Z,14.00
2018-02-05T14:16:17.359Z,14.00
2018-02-05T14:18:54.165Z,12.50
2018-02-05T14:21:30.422Z,16.00
2018-02-05T14:24:03.132Z,14.75
2018-02-05T14:26:35.704Z,15.75
2018-02-05T14:29:16.469Z,16.00
2018-02-05T14:31:49.612Z,14.25
2018-02-05T14:34:20.775Z,14.00
2018-02-05T14:39:48.630Z,22.00
2018-02-05T14:42:19.837Z,20.25
2018-02-05T14:44:50.679Z,14.75
2018-02-05T14:47:21.725Z,15.75
2018-02-05T14:49:55.362Z,23.00
2018-02-05T14:52:33.495Z,18.25
2018-02-05T14:55:07.073Z,18.25
2018-02-05T14:57:48.197Z,22.25
2018-02-05T15:00:19.303Z,19.75
2018-02-05T15:02:52.526Z,21.25
2018-02-05T15:05:24.317Z,17.25
2018-02-05T15:07:55.218Z,20.75
2018-02-05T15:10:26.248Z,28.50
2018-02-05T15:12:56.689Z,19.25
2018-02-05T15:15:27.611Z,23.50
2018-02-05T15:17:58.855Z,22.75
2018-02-05T15:20:30.351Z,23.00
2018-02-05T15:23:01.770Z,26.75
2018-02-05T15:25:32.582Z,24.00
2018-02-05T15:28:03.683Z,17.75
2018-02-05T15:30:43.730Z,22.75
2018-02-05T15:33:18.346Z,30.25
2018-02-05T15:35:49.695Z,24.75
2018-02-05T15:38:21.850Z,22.00
2018-02-05T15:40:55.267Z,21.75
2018-02-05T15:43:31.317Z,22.75
2018-02-05T15:46:03.158Z,22.00
2018-02-05T15:48:34.045Z,24.50
2018-02-05T15:51:05.164Z,25.00
2018-02-05T15:53:36.176Z,26.25
2018-02-05T15:56:08.488Z,25.25
2018-02-05T15:58:41.022Z,25.00
2018-02-05T16:01:12.860Z,24.75
2018-02-05T16:03:43.950Z,22.25
2018-02-05T16:06:18.113Z,23.25
2018-02-05T16:08:49.486Z,26.25
2018-02-05T16:11:20.916Z,24.50
2018-02-05T16:13:52.794Z,24.50
2018-02-05T16:16:23.635Z,19.25
2018-02-05T16:18:56.754Z,21.25
2018-02-05T16:21:27.894Z,20.25
2018-02-05T16:23:58.428Z,22.00
2018-02-05T16:26:36.848Z,21.75
2018-02-05T16:29:08.769Z,24.50
2018-02-05T16:31:40.670Z,23.50
2018-02-05T16:34:14.538Z,22.75
2018-02-05T16:36:45.024Z,21.25
2018-02-05T16:39:17.955Z,27.00
2018-02-05T16:41:50.085Z,28.75
2018-02-05T16:44:21.652Z,27.75
2018-02-05T16:46:58.449Z,25.25
2018-02-05T16:49:38.893Z,29.75
2018-02-05T16:52:10.908Z,29.50
2018-02-05T16:54:43.291Z,31.75
2018-02-05T16:57:15.880Z,27.25
2018-02-05T16:59:47.760Z,25.00
2018-02-05T17:02:25.419Z,30.50
2018-02-05T17:04:55.672Z,29.75
2018-02-05T17:07:30.769Z,28.75
2018-02-05T17:10:03.372Z,32.75
2018-02-05T17:12:34.611Z,30.00
2018-02-05T17:15:09.484Z,29.25
2018-02-05T17:17:42.795Z,25.25
2018-02-05T17:20:14.682Z,30.25
2018-02-05T17:22:49.041Z,29.00
2018-02-05T17:25:20.091Z,27.75
2018-02-05T17:27:52.123Z,29.50
2018-02-05T17:30:28.428Z,30.00
2018-02-05T17:33:00.207Z,25.50
2018-02-05T17:35:31.557Z,24.50
2018-02-05T17:40:43.782Z,26.50
2018-02-05T17:43:15.042Z,27.00
2018-02-05T17:45:46.997Z,27.50
2018-02-05T17:48:17.989Z,26.00
2018-02-05T17:50:53.047Z,25.50
2018-02-05T17:53:23.940Z,32.75
2018-02-05T17:55:55.152Z,29.00
2018-02-05T17:58:25.863Z,33.00
2018-02-05T18:00:57.460Z,37.50
2018-02-05T18:03:28.329Z,29.25
2018-02-05T18:05:59.914Z,31.75
2018-02-05T18:08:32.047Z,28.25
2018-02-05T18:11:03.653Z,34.25
2018-02-05T18:13:35.253Z,35.50
2018-02-05T18:16:06.435Z,34.25
2018-02-05T18:18:38.364Z,31.50
2018-02-05T18:21:10.266Z,37.50
2018-02-05T18:23:47.189Z,31.75
2018-02-05T18:26:19.548Z,33.00
2018-02-05T18:28:52.835Z,28.00
2018-02-05T18:31:24.132Z,36.25
2018-02-05T18:33:55.058Z,30.75
2018-02-05T18:36:26.078Z,36.00
2018-02-05T18:39:00.726Z,33.75
2018-02-05T18:41:32.489Z,35.50
2018-02-05T18:44:06.899Z,35.25
2018-02-05T18:46:39.389Z,31.25
2018-02-05T18:49:11.436Z,34.00
2018-02-05T18:51:43.516Z,36.00
2018-02-05T18:54:16.930Z,32.00
2018-02-05T18:56:48.591Z,38.50
2018-02-05T18:59:21.543Z,37.25
2018-02-05T19:02:02.944Z,45.50
2018-02-05T19:04:39.463Z,49.75
2018-02-05T19:07:12.449Z,36.00
2018-02-05T19:09:44.729Z,39.00
2018-02-05T19:12:17.428Z,33.25
2018-02-05T19:14:48.821Z,38.50
2018-02-05T19:17:20.618Z,37.00
2018-02-05T19:19:51.660Z,37.50
2018-02-05T19:22:23.331Z,44.25
2018-02-05T19:24:54.775Z,42.00
2018-02-05T19:27:28.267Z,39.50
2018-02-05T19:30:00.906Z,32.75
2018-02-05T19:32:35.574Z,31.50
2018-02-05T19:35:08.052Z,30.00
2018-02-05T19:37:39.899Z,37.25
2018-02-05T19:40:12.467Z,37.25
2018-02-05T19:42:45.439Z,44.25
2018-02-05T19:45:20.829Z,44.25
2018-02-05T19:47:54.995Z,33.50
2018-02-05T19:50:34.157Z,40.00
2018-02-05T19:53:07.816Z,35.25
2018-02-05T19:55:40.182Z,37.00
2018-02-05T19:58:15.268Z,41.75
2018-02-05T20:00:47.103Z,32.75
2018-02-05T20:03:19.488Z,33.25
2018-02-05T20:05:52.439Z,32.25
2018-02-05T20:08:23.522Z,32.25
2018-02-05T20:10:56.166Z,26.75
2018-02-05T20:13:27.666Z,34.50
2018-02-05T20:15:59.503Z,36.75
2018-02-05T20:18:30.365Z,30.00
2018-02-05T20:21:02.027Z,29.75
2018-02-05T20:23:33.114Z,33.25
2018-02-05T20:26:04.534Z,32.50
2018-02-05T20:28:35.844Z,31.75
2018-02-05T20:31:07.023Z,30.00
2018-02-05T20:33:37.865Z,28.75
2018-02-05T20:36:09.736Z,32.50
2018-02-05T20:38:41.065Z,29.25
2018-02-05T20:41:12.342Z,30.00
2018-02-05T20:43:43.398Z,32.25
2018-02-05T20:46:16.560Z,34.25
2018-02-05T20:48:49.366Z,35.00
2018-02-05T20:51:20.689Z,34.75
2018-02-05T20:53:57.527Z,36.25
2018-02-05T20:56:29.489Z,39.25
2018-02-05T20:59:02.174Z,38.75
2018-02-05T21:04:23.865Z,45.75
2018-02-05T21:07:00.382Z,46.75
2018-02-05T21:09:31.790Z,48.75
2018-02-05T21:12:03.255Z,42.75
2018-02-05T21:14:34.577Z,38.75
2018-02-05T21:17:06.392Z,33.75
2018-02-05T21:19:38.495Z,44.75
2018-02-05T21:22:10.378Z,38.75
2018-02-05T21:24:41.249Z,31.00
2018-02-05T21:27:12.541Z,40.50
2018-02-05T21:29:43.861Z,33.00
2018-02-05T21:32:15.622Z,39.50
2018-02-05T21:34:47.257Z,36.25
2018-02-05T21:37:18.405Z,38.75
2018-02-05T21:39:50.514Z,36.25
2018-02-05T21:42:22.186Z,39.50
2018-02-05T21:44:53.029Z,42.50
2018-02-05T21:47:24.048Z,42.50
2018-02-05T21:49:55.294Z,36.25
2018-02-05T21:52:27.276Z,35.50
2018-02-05T21:54:58.160Z,34.25
2018-02-05T21:57:29.752Z,34.50
2018-02-05T22:00:06.135Z,40.00
2018-02-05T22:02:40.831Z,38.25
2018-02-05T22:05:13.087Z,39.25
2018-02-05T22:07:44.770Z,37.00
2018-02-05T22:10:15.710Z,37.75
2018-02-05T22:12:48.100Z,40.75
2018-02-05T22:15:22.520Z,36.25
2018-02-05T22:17:53.882Z,30.00
2018-02-05T22:20:25.485Z,33.75
2018-02-05T22:22:56.467Z,31.00
2018-02-05T22:25:33.579Z,30.25
2018-02-05T22:28:17.061Z,33.50
2018-02-05T22:30:48.898Z,34.50
2018-02-05T22:33:20.054Z,37.00
2018-02-05T22:35:51.215Z,38.00
2018-02-05T22:38:22.088Z,40.00
2018-02-05T22:40:53.295Z,39.50
2018-02-05T22:43:25.969Z,45.75
2018-02-05T22:45:58.058Z,41.75
2018-02-05T22:48:29.876Z,43.50
2018-02-05T22:51:02.912Z,33.00
2018-02-05T22:53:33.933Z,42.50
2018-02-05T22:56:05.835Z,38.00
2018-02-05T22:58:37.900Z,39.25
2018-02-05T23:01:10.359Z,41.75
2018-02-05T23:03:43.145Z,44.50
2018-02-05T23:06:14.455Z,36.75
2018-02-05T23:08:46.536Z,36.75
2018-02-05T23:11:19.410Z,35.50
2018-02-05T23:13:51.052Z,39.00
2018-02-05T23:16:26.306Z,37.00
2018-02-05T23:18:59.476Z,38.75
2018-02-05T23:21:30.475Z,42.50
2018-02-05T23:24:01.853Z,31.50
2018-02-05T23:26:33.180Z,33.00
2018-02-05T23:29:05.481Z,33.50
2018-02-05T23:31:38.211Z,31.75
2018-02-05T23:34:09.577Z,33.25
2018-02-05T23:36:41.944Z,31.75
2018-02-05T23:39:13.758Z,47.75
2018-02-05T23:41:44.480Z,31.25
2018-02-05T23:44:15.901Z,42.50
2018-02-05T23:46:47.033Z,33.50
2018-02-05T23:49:17.894Z,29.50
2018-02-05T23:51:50.154Z,39.75
2018-02-05T23:54:21.897Z,30.75
2018-02-05T23:56:52.687Z,38.50
2018-02-05T23:59:23.564Z,36.75
